x

8447387 - Borden Flats Light At Fall River, Ma (bltm3) Weather Station

5:30 - Tue 26th Jul 2016 All times are EDT. -4 hours from GMT.

  • Wind
    10mph, 13mph gusts
  • Air Temp 75°f
  • Sea Pressure 1009.8mb
  • 8447387 - Borden Flats Light At Fall River, Ma
  • 8447387 - Borden Flats Light At Fall River, Ma

More Historic Weather Station data

Upgrade to MSW Pro to gain access to the past 30 days of data for over 8000 Wavebouys and Weather Stations around the globe.

Join Pro

Comparision Forecast

View Surf forecast
   
mar. 07/26 5:30 10 13 mph 1009.8mb 75f
5:24 10 13 mph 1009.8mb 75f
5:18 10 11 mph 1009.7mb 75f
5:12 9 11 mph 1009.7mb 75f
5:06 10 11 mph 1009.7mb 75f
5:00 10 11 mph 1009.7mb 75f
4:54 10 13 mph 1009.6mb 75f
4:48 11
mph
1009.6mb 75f
4:42 10 13 mph 1009.5mb 75f
4:36 10 11 mph 1009.4mb 75f
4:30 9 11 mph 1009.3mb 75f
4:24 9 13 mph 1009.4mb 75f
4:18 9 10 mph 1009.3mb 75f
4:12 9 11 mph 1009.3mb 75f
4:06 9 11 mph 1009.2mb 76f
4:00 11 14 mph 1009.1mb 75f
3:54 10 13 mph 1009.1mb 75f
3:48 9 11 mph 1009.1mb 75f
3:42 9 10 mph 1009.1mb 75f
3:36 9 11 mph 1009mb 75f
3:30 11 14 mph 1009mb 76f
3:24 11 13 mph 1009mb 76f
3:18 13 15 mph 1009mb 76f
3:12 11 13 mph 1009mb 76f
3:06 11 14 mph 1009mb 76f
3:00 11 14 mph 1008.9mb 76f
2:54 11 14 mph 1009mb 76f
2:48 11 13 mph 1008.9mb 76f
2:42 10 13 mph 1008.8mb 76f
2:36 10 11 mph 1008.8mb 76f
2:30 10 11 mph 1008.8mb 76f
2:24 10 13 mph 1008.8mb 76f
2:18 10 11 mph 1008.8mb 76f
2:12 9 11 mph 1008.7mb 76f
2:06 10 13 mph 1008.7mb 76f
2:00 13 14 mph 1008.7mb 76f
1:54 13 16 mph 1008.8mb 76f
1:48 13 15 mph 1008.8mb -
1:42 14 15 mph 1008.9mb -
1:30 14 15 mph 1009mb 76f
1:24 14 16 mph 1009mb 76f
1:18 14 15 mph 1009.1mb 76f
1:12 14 16 mph 1009.2mb 76f
1:06 15 17 mph 1009.2mb 76f
1:00 14 16 mph 1009.2mb 77f
12:54 14 15 mph 1009.2mb 77f
12:48 14 16 mph 1009.2mb 77f
12:42 14 15 mph 1009.1mb 77f
12:36 9 10 mph 1009.2mb 77f
12:30 11 13 mph 1009.4mb 78f
12:24 14
mph
1009.4mb 77f
12:12 8 10 mph 1009.3mb 76f
12:06 9 10 mph 1009.4mb 76f
lun. 07/25 11:54 10 13 mph 1009.7mb 76f
11:48 8 10 mph 1009.6mb 76f
11:42 10 11 mph 1009.6mb 76f
11:36 9 10 mph 1009.5mb 76f
11:30 8 9 mph 1009.2mb 76f
11:24 6 7 mph 1009.2mb 76f
11:18 7
mph
1009.3mb 76f
11:12 7 8 mph 1009.3mb 76f
11:06 7 8 mph 1009.2mb 76f
11:00 7 8 mph - 76f
10:54 8
mph
- 76f
10:48 8 9 mph 1009.3mb -
10:42 8 9 mph 1009.1mb -
10:36 9 10 mph 1009.1mb -
10:30 10 11 mph - 76f
10:24 10 13 mph - 76f
10:18 11 14 mph - 76f
10:12 14 15 mph - 77f
10:06 13 15 mph - 77f
10:00 13 15 mph - 77f
9:54 14 17 mph - 77f
9:48 15 18 mph 1009.3mb -
9:42 14 17 mph 1009.4mb -
9:36 13 15 mph 1009.4mb -
9:30 11 16 mph - -
9:24 14 17 mph - -
9:18 13 15 mph - 77f
9:12 13 15 mph - 76f
9:06 13 17 mph - 76f
9:00 14 18 mph - 76f
8:54 13 16 mph - 76f
8:48 14 17 mph - -
8:42 13 15 mph - -
8:36 13 18 mph - -
8:30 11 16 mph - 76f
8:24 10 14 mph - 76f
8:18 11 14 mph - -
8:12 15 18 mph - -
8:06 14 18 mph - -
8:00  -  mph - 76f
7:54  -  mph - 77f
7:48 18 22 mph 1010.5mb -
7:42 17 21 mph 1010.5mb -
7:36 17 20 mph 1010.4mb -
7:30 17 22 mph 1010.3mb -
7:24 15 20 mph 1010.2mb -
7:18 14 17 mph 1010.1mb -
7:12 13 18 mph 1010mb -
7:06 11 14 mph 1010.1mb -
7:00  -  mph - 77f
6:54  -  mph - 77f
6:48 10 14 mph 1009.9mb -
6:42 13 16 mph 1010mb -
6:36 10 15 mph 1010mb -
6:30 14 21 mph 1009.8mb -
6:24 13 16 mph 1009.8mb -
6:18 13 17 mph - 77f
6:12 14 18 mph - 77f
6:06 11 16 mph - 77f
6:00 14 18 mph - 78f
5:54 13 15 mph - 78f
5:48  -  mph - 78f
5:42  -  mph - 78f
5:36  -  mph - 78f
5:30 14 18 mph 1010.1mb 78f
5:24 13 17 mph 1010.2mb 78f
5:18 14 20 mph 1010.2mb 78f
5:12 14 18 mph 1010.2mb 79f
5:06 16 20 mph 1010.4mb 79f
5:00 14 21 mph 1010.4mb 79f
4:54 15 18 mph 1010.7mb 79f
4:48 20 23 mph 1010.8mb 79f
4:42 18 22 mph 1011mb 79f
4:36 17 21 mph 1010.9mb 80f
4:30 18 22 mph 1010.8mb 80f
4:24 17 22 mph 1010.9mb 81f
4:18 13 16 mph 1011.1mb 81f
4:12 16 20 mph 1011.1mb 80f
4:06 20 23 mph 1011.2mb 80f
4:00 18 22 mph 1011.2mb 81f
3:54 18 22 mph 1011.3mb 81f
3:48 16 20 mph 1011.3mb 82f
3:42 15 21 mph 1011.2mb 82f
3:36 16 20 mph 1011.3mb 82f
3:30 16 21 mph 1011.4mb 83f
3:18 17 22 mph 1011.4mb 83f
3:12 16 22 mph 1011.4mb 84f
3:06 17 22 mph 1011.6mb 84f
3:00 21 24 mph 1011.6mb 83f
2:54 18 25 mph 1011.7mb 84f
2:48 20 23 mph 1011.7mb 85f
2:42 16 22 mph 1011.9mb 85f
2:36 17 21 mph 1011.9mb 85f
2:30 20 24 mph 1011.9mb 85f
2:24 20 23 mph 1011.9mb 85f
2:18 21 24 mph 1012mb 85f
2:12 20 23 mph 1012mb 85f
2:06 18 21 mph 1012mb 85f
2:00 16 21 mph 1012mb 85f
1:54 15 21 mph 1012mb 85f
1:48 18 23 mph 1012.1mb 85f
1:42 13 15 mph 1012.2mb 85f
1:36 13 16 mph 1012.3mb 84f
1:30 16 18 mph 1012.4mb 84f
1:24 14 18 mph 1012.4mb 84f
1:18 17 20 mph 1012.4mb 84f
1:12 16 21 mph 1012.3mb 85f
1:06 14 17 mph 1012.3mb 85f
1:00 15 20 mph 1012.4mb 85f
12:54 13 16 mph 1012.5mb 84f
12:48 13 16 mph 1012.6mb 84f
12:42 15 17 mph 1012.6mb 84f
12:36 15 16 mph 1012.6mb 83f
12:30 14 16 mph 1012.7mb 83f
12:24 14 16 mph 1012.8mb 83f
12:18 15 17 mph 1012.8mb 83f
12:12 15 16 mph 1012.8mb 83f
12:06 14 16 mph 1012.8mb 83f
12:00 14 16 mph 1012.9mb 82f
11:54 16 17 mph 1013mb 82f
11:48 16 17 mph 1013.1mb 82f
11:42 15 17 mph 1013mb 82f
11:36 15 17 mph 1013.1mb 82f
11:30 14 16 mph 1013.1mb 82f
11:24 14 16 mph 1013.1mb 82f
11:18 13 15 mph 1013.2mb 82f
11:06 15 21 mph 1013.3mb 82f
10:54 15 20 mph 1013.4mb 82f
10:48 15 18 mph 1013.3mb 82f
10:42 14 16 mph 1013.3mb 81f
10:36 14 16 mph 1013.4mb 81f
10:30 11 14 mph 1013.4mb 81f
10:24 14 17 mph 1013.4mb 81f
10:18 13 14 mph 1013.4mb 80f
10:12 14 16 mph 1013.5mb 80f
10:06 11 14 mph 1013.4mb 79f
10:00 11 13 mph 1013.5mb 78f
9:54 9 10 mph 1013.5mb 78f
9:48 10 11 mph 1013.5mb 78f
9:42 10 11 mph 1013.6mb 78f
9:36 9 10 mph 1013.6mb 77f
9:30 9 11 mph 1013.7mb 77f
9:24 8 9 mph 1013.6mb 77f
9:18 8 9 mph 1013.7mb 77f
9:12 8 9 mph 1013.8mb 77f
9:06 7 8 mph 1013.8mb 76f
9:00 7 8 mph 1013.9mb 76f
8:54 8 9 mph 1014mb 76f
8:48 7 8 mph 1014.1mb 76f
8:42 7 8 mph 1014.2mb 76f
8:36 8 9 mph 1014.3mb 76f
8:30 8 10 mph 1014.4mb 76f
8:24 7 8 mph 1014.4mb 75f
8:18 8 9 mph 1014.5mb 75f
8:12 9 10 mph 1014.5mb 75f
8:06 9 10 mph 1014.5mb 75f
8:00 9 10 mph 1014.6mb 75f
7:54 9 10 mph 1014.7mb 75f
7:48 9 10 mph 1014.6mb 75f
7:42 8 9 mph 1014.5mb 76f
7:36 6 7 mph 1014.4mb 75f
7:30 6 9 mph 1014.4mb 75f
7:24 7 10 mph 1014.5mb 75f
7:18 9 10 mph 1014.6mb 75f
7:12 9 11 mph 1014.6mb 75f
7:06 11 14 mph 1014.6mb 76f
7:00 10 13 mph 1014.7mb 75f
6:54 9 10 mph 1014.7mb 75f
6:48 7 9 mph 1014.7mb 75f
6:42 8 9 mph 1014.5mb 75f
6:36 8 9 mph 1014.4mb 75f
6:30 8 10 mph 1014.4mb 75f
6:24 7 9 mph 1014.5mb 75f
6:18 6 7 mph 1014.5mb 75f
6:12 6 7 mph 1014.5mb 74f
6:06 5 6 mph 1014.5mb 74f
6:00 6 7 mph 1014.5mb 74f
5:54 5 7 mph 1014.5mb 74f
5:48 5 6 mph 1014.5mb 74f
5:42 5 6 mph 1014.5mb 74f
5:36 5 6 mph 1014.5mb 74f
5:30 6 8 mph 1014.5mb 74f
5:24 6 8 mph 1014.5mb 74f
5:18 6 7 mph 1014.4mb 74f
5:12 6 7 mph 1014.4mb 74f
5:06 7 8 mph 1014.4mb 75f
5:00 7 8 mph 1014.5mb 74f
4:54 7 8 mph 1014.4mb 74f
4:48 7 8 mph 1014.3mb 75f
4:42 7 8 mph 1014.3mb 74f
4:36 5 6 mph 1014.3mb 74f
4:30 5 6 mph 1014.2mb 74f
4:24 3 5 mph 1014.2mb 74f
4:18 3 5 mph 1014.3mb 74f
4:12 5
mph
1014.3mb 74f
4:06 5 6 mph 1014.3mb 74f
4:00 5 6 mph 1014.3mb 74f
3:54 3 5 mph 1014.3mb 74f
3:48 3 5 mph 1014.4mb 74f
3:42 5 6 mph 1014.4mb 74f
3:36 6 7 mph 1014.4mb 74f
3:30 6
mph
1014.4mb 74f
3:24 6 7 mph 1014.5mb 74f
3:12 6 7 mph 1014.6mb 75f
3:06 6 7 mph 1014.7mb 75f
3:00 6 7 mph 1014.7mb 75f
2:54 7 8 mph 1014.7mb 75f
2:48 7 8 mph 1014.7mb 75f
2:42 6 7 mph 1014.6mb 75f
2:36 6 7 mph 1014.6mb 75f
2:30 6 7 mph 1014.6mb 75f
2:24 6 7 mph 1014.6mb 76f
2:18 6 7 mph 1014.5mb 76f
2:12 6 7 mph 1014.5mb 75f
2:06 5 6 mph 1014.6mb 76f
2:00 7
mph
1014.6mb 76f
1:54 7 8 mph 1014.6mb 76f
1:48 7 8 mph 1014.7mb -
1:42 7 8 mph 1014.8mb -
1:36 7 8 mph 1014.9mb -
1:30 6 8 mph 1014.9mb 76f
1:24 7 8 mph 1015mb 76f
1:18 6 7 mph 1015mb 76f
1:12 7 9 mph 1015mb 76f
1:06 8 9 mph 1015mb 76f
1:00 8 9 mph 1015mb 76f
12:54 8 10 mph 1015mb 77f
12:48 8 9 mph 1015.1mb 76f
12:42 9 10 mph 1015.1mb 76f
12:36 9 11 mph 1015.2mb 76f
12:30 8 10 mph 1015.3mb 76f
12:18 10 13 mph 1015.3mb 76f
12:12 11 13 mph 1015.3mb 76f
12:06 8 10 mph 1015.3mb 76f
12:00 8 9 mph 1015.3mb 76f
dim. 07/24 11:54 9 10 mph 1015.3mb 76f
11:48 10 11 mph 1015.3mb 76f
11:42 11 13 mph 1015.3mb 76f
11:36 10 13 mph 1015.3mb 76f
11:30 9 11 mph 1015.3mb 76f
11:24 9 10 mph 1015.3mb 76f
11:18 10 13 mph - 76f
11:12 9 10 mph - 77f
11:06 9 10 mph - 76f
11:00  -  mph 1015.2mb -
10:54  -  mph 1015.3mb -
10:48 8 9 mph 1015.3mb -
10:42 8 9 mph 1015.3mb -
10:36 8 10 mph 1015.2mb -
10:30 9 11 mph - -
10:24 11 13 mph - -
10:18 11 13 mph 1015.3mb 77f
10:12 11 14 mph 1015.2mb 77f
10:06 11 13 mph 1015.3mb 77f
10:00  -  mph - 77f
9:54  -  mph - 77f
9:48 10 13 mph - -
9:42 11 13 mph - -
9:36 10 14 mph - -
9:30 11 13 mph 1015mb -
9:24 11 13 mph 1014.9mb -
9:18 13 15 mph 1014.9mb -
9:12 11 14 mph 1014.8mb -
9:06 13 14 mph 1014.8mb -
9:00 14 16 mph - 77f
8:54 14 15 mph - 77f
8:48 11 14 mph 1014.7mb -
8:42 11 14 mph 1014.6mb -
8:36 11 14 mph 1014.4mb -
8:30 11 14 mph - -
8:24 13 16 mph - -
8:18 13 15 mph - 77f
8:12 13 14 mph - 77f
8:06 11 14 mph - 77f
8:00  -  mph - 77f
7:54  -  mph - 78f
7:48 11 14 mph - -
7:42 9 14 mph - -
7:36 11 15 mph - -
7:30 14 16 mph - -
7:24 11 15 mph - -
7:18 15 17 mph - -
7:12 10 14 mph - -
7:06 10 14 mph - -
7:00  -  mph - 78f
6:54  -  mph - 79f
6:48 13 15 mph - -
6:42 14 20 mph - -
6:36 14 17 mph - -
6:30 16 22 mph - -
6:24 14 18 mph - -
6:18 14 20 mph 1013.6mb 79f
6:12 15 18 mph 1013.6mb 80f
6:06 14 20 mph 1013.4mb 80f
6:00  -  mph - 80f
5:54  -  mph - 80f
5:48 11 14 mph - 80f
5:42 14 17 mph - 80f
5:36 16 18 mph - 80f
5:30 14 16 mph 1013.4mb 80f
5:24 13 17 mph 1013.4mb 80f
5:18 11 15 mph 1013.5mb 80f
5:12 14 16 mph 1013.5mb 80f
5:06 15 18 mph 1013.5mb 80f
5:00 14 17 mph 1013.5mb 80f
4:54 15 20 mph 1013.4mb 80f
4:48 15 18 mph 1013.4mb 80f
4:42 15 17 mph 1013.5mb 80f
4:36 13 16 mph 1013.5mb 81f
4:30 11 15 mph 1013.5mb 81f
4:24 14 17 mph 1013.5mb 81f
4:18 14 17 mph 1013.7mb 81f
4:12 14 17 mph 1013.6mb 81f
4:06 15 17 mph 1013.6mb 81f
4:00 16 17 mph 1013.7mb 81f
3:54 14 16 mph 1013.7mb 81f
3:48 14 16 mph 1013.7mb 81f
3:42 14 18 mph 1013.6mb 81f
3:36 15 17 mph 1013.6mb 80f
3:30 15 16 mph 1013.7mb 81f
3:24 10 14 mph 1013.6mb 81f
3:18 11 14 mph 1013.6mb 80f
3:12 15 16 mph 1013.7mb 80f
3:06 13 15 mph 1013.7mb 80f
3:00 14 15 mph 1013.7mb 80f
2:54 13 14 mph 1013.7mb 80f
2:48 14
mph
1013.8mb 80f
2:42 14 15 mph 1013.9mb 80f
2:36 15 17 mph 1013.9mb 80f
2:30 15 18 mph 1013.9mb 79f
2:24 16 18 mph 1013.9mb 78f
2:18 17 18 mph 1014mb 79f
2:12 15 17 mph 1014mb 79f
2:06 14 15 mph 1014mb 80f
2:00 10 13 mph 1014.1mb 80f
1:54 13 14 mph 1014.1mb 81f
1:48 14 15 mph 1014.1mb 80f
1:42 10 11 mph 1014.1mb 81f
1:36 10 11 mph 1014.1mb 81f
1:30 9 10 mph 1014.2mb 81f
1:24 9 11 mph 1014.3mb 80f
1:18 10 13 mph 1014.3mb 80f
1:12 9 11 mph 1014.3mb 80f
1:06 9 10 mph 1014.3mb 80f
1:00 11 13 mph 1014.3mb 80f
12:54 9
mph
1014.3mb 80f
12:48 10 11 mph 1014.2mb 80f
12:42 11 14 mph 1014.2mb 80f
12:36 10 11 mph 1014.2mb 79f
12:30 11 13 mph 1014.2mb 79f
12:24 10 11 mph 1014.2mb 79f
12:18 9 13 mph 1014.3mb 79f
12:12 8 9 mph 1014.3mb 79f
12:06 10 11 mph 1014.2mb 79f
12:00 8 10 mph 1014.2mb 79f
11:54 9 10 mph 1014.2mb 78f
11:48 11 13 mph 1014.2mb 78f
11:42 13 14 mph 1014.2mb 78f
11:36 11 13 mph 1014.2mb 78f
11:30 10 13 mph 1014.2mb 77f
11:24 7 8 mph 1014.2mb 78f
11:18 7
mph
1014.2mb 78f
11:12 7 8 mph 1014.2mb 77f
11:06 8
mph
1014.2mb 77f
11:00 6 7 mph 1014.2mb 77f
10:54 6
mph
1014.2mb 77f
10:48 6 7 mph 1014.2mb 77f
10:42 6
mph
1014.1mb 77f
10:36 6 7 mph 1014.1mb 77f
10:30 7 8 mph 1014.2mb 76f
10:24 7
mph
1014.2mb 76f
10:18 7 9 mph 1014.2mb 76f
10:12 6 7 mph 1014.2mb 76f
10:06 5 6 mph 1014.3mb 76f
10:00 6 8 mph 1014.4mb 76f
9:54 6 7 mph 1014.4mb 75f
9:48 7 8 mph 1014.3mb 75f
9:42 7 8 mph 1014.3mb 75f
9:36 6
mph
1014.3mb 75f
9:30 6
mph
1014.3mb 75f
9:24 3 6 mph 1014.2mb 75f
9:18  -  3 mph 1014.2mb 76f
9:12 3 6 mph 1014.2mb 75f
9:06 5 7 mph 1014.2mb 76f
9:00 6 8 mph 1014.3mb 75f
8:54 5 6 mph 1014.2mb 75f
8:48 6 8 mph 1014.1mb 76f
8:42 2 3 mph 1014mb 76f
8:36 5 8 mph 1014mb 75f
8:30 5 7 mph 1014mb 75f
8:24 7 10 mph 1014mb 75f
8:18 7 9 mph 1014mb 74f
8:12 8 13 mph 1013.9mb 74f
8:06 8 13 mph 1013.9mb 74f
8:00 8 10 mph 1013.9mb 74f
7:54 7 10 mph 1013.9mb 74f
7:48 7 9 mph 1013.9mb 73f
7:42 7 10 mph 1013.8mb 73f
7:36 9 11 mph 1013.8mb 73f
7:30 8 13 mph 1013.7mb 73f
7:24 8 10 mph 1013.8mb 73f
7:18 9 15 mph 1013.7mb 72f
7:12 7 10 mph 1013.8mb 72f
7:06 6 11 mph 1013.7mb 71f
7:00 6 7 mph 1013.8mb 71f
6:54 7 10 mph 1013.8mb 71f
6:48 6 10 mph 1013.7mb 71f
6:42 3 6 mph 1013.7mb 70f
6:36 2 6 mph 1013.7mb 70f
6:30 2 5 mph 1013.6mb 70f
6:24 3 7 mph 1013.6mb 70f
6:18 3 5 mph 1013.5mb 70f
6:12 5 6 mph 1013.4mb 70f
6:06 5 6 mph 1013.4mb 70f
6:00 6 8 mph 1013.3mb 70f
5:54 5 7 mph 1013.2mb 70f
5:48 6 7 mph 1013.2mb 70f
5:42 5 7 mph 1013.1mb 70f
5:36 3 6 mph 1013mb 70f
5:30 3 6 mph 1013mb 70f
5:24  -  3 mph 1012.9mb 70f
5:18 5 7 mph 1012.9mb 70f
5:12 2 5 mph 1012.8mb 70f
5:06 3 6 mph 1012.8mb 70f
5:00 3 6 mph 1012.8mb 70f
4:54 6 7 mph 1012.8mb 70f
4:48 6 8 mph 1012.7mb 71f
4:42 8 10 mph 1012.7mb 71f
4:36 10 13 mph 1012.6mb 71f
4:30 10 13 mph 1012.4mb 71f
4:24 10 13 mph 1012.4mb 71f
4:18 9 13 mph 1012.5mb 71f
4:12 10 13 mph 1012.5mb 71f
4:06 9 11 mph 1012.6mb 71f
4:00 9 13 mph 1012.5mb 71f
3:54 8 10 mph 1012.5mb 71f
3:48 7 9 mph 1012.5mb 71f
3:42 8 10 mph 1012.5mb 71f
3:36 10 14 mph 1012.5mb 71f
3:30 10 14 mph 1012.6mb 71f
3:24 9 13 mph 1012.5mb 71f
3:18 9 11 mph 1012.6mb 71f
3:12 8 10 mph 1012.7mb 72f
3:06 8 9 mph 1012.7mb 72f
3:00 8 10 mph 1012.7mb 72f
2:54 8 10 mph 1012.7mb 72f
2:48 8 10 mph 1012.7mb 72f
2:42 8 10 mph 1012.7mb 72f
2:36 6 7 mph 1012.7mb 73f
2:30 6 8 mph 1012.7mb 73f
2:24 8 10 mph 1012.7mb 73f
2:18 9 11 mph 1012.6mb 73f
2:12 10 14 mph 1012.6mb 73f
2:06 9 13 mph 1012.5mb 73f
2:00 10 11 mph 1012.5mb 74f
1:54 8 11 mph 1012.5mb 74f
1:48 8 9 mph 1012.3mb 74f
1:42 7 10 mph 1012.2mb 74f
1:36 6 8 mph 1012.1mb 74f
1:30 7 10 mph 1012.1mb 74f
1:24 7 8 mph 1012mb 74f
1:18 6 7 mph 1012mb 74f
1:12 6 7 mph 1011.9mb 74f
1:06 6 8 mph 1011.9mb 74f
1:00 5 6 mph 1011.8mb 74f
12:54 5 6 mph 1011.9mb 74f
12:48 3 6 mph 1011.9mb 74f
12:42 3 5 mph 1011.9mb 74f
12:36 5 7 mph 1011.9mb 75f
12:30 5 7 mph 1012mb 74f
12:24 3 6 mph 1012mb 75f
12:18 5 6 mph 1011.9mb 75f
12:12 5 6 mph 1011.9mb 75f
12:06 3 5 mph 1011.7mb 75f
sam. 07/23 11:54 3 5 mph 1011.6mb 76f
11:48 5 6 mph 1011.6mb 76f
11:42 3 5 mph 1011.6mb 76f
11:36 3 5 mph 1011.5mb 76f
11:30 2 3 mph 1011.4mb 76f
11:24 2 3 mph 1011.3mb 76f
11:18 2 5 mph - 76f
11:12 3 5 mph - 76f
11:06 3 5 mph - 76f
11:00  -  mph - 76f
10:54  -  mph - 76f
10:48 8 11 mph 1011.4mb -
10:42 7 9 mph 1011.3mb -
10:36 8 10 mph 1011.3mb -
10:30 8 10 mph 1011.2mb -
10:24 9 11 mph 1011.1mb -
10:18  -  mph 1011.1mb 77f
10:12  -  mph 1011.1mb 77f
10:06  -  mph 1011mb 77f
10:00  -  mph - 77f
9:54  -  mph - 77f
9:48  -  mph - 78f
9:42  -  mph - 78f
9:36  -  mph - 78f
9:30 9 11 mph - -
9:24 9 11 mph - -
9:18 11 16 mph - -
9:12 10 15 mph - -
9:06 8 13 mph - -
9:00  -  mph - 80f
8:54  -  mph - 80f
8:48 11 15 mph 1009.8mb -
8:42 14 20 mph 1009.7mb -
8:36 22 29 mph 1009.7mb -
8:30 20 28 mph - -
8:24 28 37 mph - -
8:18 11 14 mph 1008.3mb -
8:12 11 13 mph 1008.1mb -
8:06 10 13 mph 1008.1mb -
8:00 13 16 mph 1008.1mb -
7:54 13 15 mph 1007.9mb -
7:48 13 15 mph - -
7:42 15 17 mph - -
7:36 17 20 mph - -
7:30 17 18 mph - -
7:24 16 18 mph - -
7:18 17 21 mph 1007.4mb 87f
7:12 17 22 mph 1007.3mb 88f
7:06 15 18 mph 1007.2mb 87f
7:00  -  mph - 88f
6:54  -  mph - 87f
6:48  -  mph - 87f
6:42  -  mph - 87f
6:36  -  mph - 88f
6:30 17 21 mph - -
6:24 21 24 mph - -
6:18 18 23 mph - -
6:12 18 22 mph - -
6:06 18 21 mph - -
6:00 18 21 mph - -
5:54 17 20 mph - -
5:48 21 23 mph 1006.9mb 89f
5:42 18 24 mph 1006.8mb 88f
5:36 17 20 mph 1006.8mb 88f
5:30 17 20 mph 1006.7mb 88f
5:24 18 23 mph 1006.9mb 89f
5:18 18 22 mph 1006.9mb 88f
5:12 20 23 mph 1007mb 88f
5:06 17 21 mph 1007mb 88f
5:00 20 24 mph 1006.9mb 88f
4:54 17 22 mph 1006.9mb 88f
4:48 20 22 mph 1006.9mb 87f
4:42 22 25 mph 1006.8mb 87f
4:36 18 21 mph 1006.9mb 88f
4:30 21 26 mph 1006.9mb 88f
4:24 20 22 mph 1007mb 88f
4:18 21 25 mph 1007.1mb 88f
4:12 18 25 mph 1007.2mb 87f
4:06 17 21 mph 1007.1mb 87f
4:00 20 24 mph 1007.2mb 88f
3:54 18 22 mph 1007.1mb 88f
3:48 20 23 mph 1007.2mb 87f
3:42 20 24 mph 1007.3mb 88f
3:36 16 20 mph 1007.3mb 87f
3:30 21 23 mph 1007.4mb 87f
3:24 17 21 mph 1007.3mb 87f
3:18 18 22 mph 1007.3mb 87f
3:12 21 24 mph 1007.4mb 87f
3:06 18 23 mph 1007.4mb 87f
3:00 22 24 mph 1007.3mb 87f
2:54 18 22 mph 1007.4mb 86f
2:48 21 24 mph 1007.5mb 87f
2:42 17 22 mph 1007.5mb 86f
2:36 15 20 mph 1007.6mb 86f
2:30 18 22 mph 1007.6mb 86f
2:24 17 23 mph 1007.6mb 86f
2:18 13 16 mph 1007.6mb 85f
2:12 15 17 mph 1007.6mb 86f
2:06 17 22 mph 1007.7mb 85f
2:00 15 22 mph 1007.6mb 86f
1:54 15 20 mph 1007.7mb 85f
1:48 17 18 mph 1007.8mb 85f
1:42 14 17 mph 1007.9mb 85f
1:36 17 22 mph 1007.9mb 85f
1:30 15 20 mph 1008mb 84f
1:24 16 20 mph 1007.9mb 85f
1:18 17 21 mph 1007.9mb 85f
1:12 14 17 mph 1007.9mb 84f
1:06 14 18 mph 1007.9mb 85f
1:00 14 15 mph 1007.9mb 85f
12:54 15 16 mph 1008mb 85f
12:48 16 18 mph 1008mb 84f
12:42 16 18 mph 1008mb 85f
12:36 15 18 mph 1008mb 84f
12:30 14 16 mph 1008mb 84f
12:24 16 17 mph 1008.1mb 84f
12:18 14 16 mph 1008.1mb 83f
12:12 15 16 mph 1008.1mb 83f
12:06 14 16 mph 1008.2mb 83f
12:00 13 16 mph 1008.1mb 83f
11:54 11 15 mph 1008.2mb 82f
11:48 13 15 mph 1008.2mb 82f
11:42 11 13 mph 1008.2mb 82f
11:36 11 14 mph 1008.2mb 82f
11:30 13 15 mph 1008.3mb 82f
11:24 15 16 mph 1008.2mb 82f
11:18 11 14 mph 1008.3mb 82f
11:12 14 15 mph 1008.3mb 82f
11:06 14 15 mph 1008.2mb 81f
11:00 14 15 mph 1008.1mb 81f
10:54 13
mph
1008.1mb 81f
10:48 14 15 mph 1008.1mb 81f
10:42 13
mph
1008.1mb 80f
10:36 11 13 mph 1008.2mb 80f
10:30 10 11 mph 1008.2mb 80f
10:24 8 10 mph 1008.2mb 80f
10:18 9 11 mph 1008.1mb 80f
10:12 10 11 mph 1008mb 80f
10:06 9 10 mph 1008mb 80f
10:00 9
mph
1008mb 80f
9:54 9
mph
1008.1mb 80f
9:48 8
mph
1008.2mb 80f
9:42 7 8 mph 1008.2mb 79f
9:36 7 8 mph 1008.2mb 79f
9:30 7
mph
1008.2mb 79f
9:24 6 7 mph 1008.2mb 79f
9:18 6
mph
1008.3mb 79f
9:12 6
mph
1008.4mb 79f
9:06 6
mph
1008.5mb 79f
9:00 7 8 mph 1008.5mb 78f
8:54 8 9 mph 1008.4mb 78f
8:48 8 9 mph 1008.4mb 77f
8:42 8 9 mph 1008.5mb 77f
8:36 8 9 mph 1008.4mb 77f
8:30 8 9 mph 1008.4mb 77f
8:24 9 10 mph 1008.3mb 76f
8:18 9 10 mph 1008.3mb 76f
8:12 8 9 mph 1008.3mb 76f
8:06 7 8 mph 1008.4mb 76f
8:00 7 9 mph 1008.4mb 76f
7:54 7 8 mph 1008.4mb 76f
7:48 7 8 mph 1008.5mb 76f
7:42 6 7 mph 1008.5mb 76f
7:36 6 7 mph 1008.6mb 75f
7:30 5 6 mph 1008.5mb 75f
7:24 5 6 mph 1008.5mb 75f
7:18 3 5 mph 1008.5mb 75f
7:12 3 5 mph 1008.6mb 75f
7:06 3 5 mph 1008.5mb 75f
7:00 3 5 mph 1008.5mb 75f
6:54 5 6 mph 1008.5mb 75f
6:48 5 6 mph 1008.4mb 75f
6:42 6 8 mph 1008.4mb 75f
6:36 6 8 mph 1008.4mb 75f
6:30 7 8 mph 1008.4mb 75f
6:24 8 10 mph 1008.3mb 75f
6:18 8 9 mph 1008.2mb 75f
6:12 9 11 mph 1008.2mb 75f
6:06 9 10 mph 1008.1mb 75f
6:00 8 10 mph 1008.1mb 75f
5:54 9 10 mph 1008mb 75f
5:48 8 9 mph 1008mb 75f
5:42 7 8 mph 1008mb 75f
5:36 8 9 mph 1008mb 75f
5:30 7 9 mph 1008.1mb 75f
5:24 8 9 mph 1008mb 75f
5:18 7 9 mph 1008mb 75f
5:12 6 9 mph 1008mb 74f
5:06 6
mph
1007.9mb 74f
5:00 6 7 mph 1007.9mb 74f
4:54 6
mph
1007.9mb 74f
4:48 5 6 mph 1007.9mb 74f
4:42 2
mph
1007.9mb 74f
4:36 2 3 mph 1007.8mb 74f
4:30 5 6 mph 1007.8mb 74f
4:24 2 5 mph 1007.8mb 74f
4:18 2 3 mph 1007.8mb 74f
4:12 3 6 mph 1007.9mb 74f
4:06 6 9 mph 1007.9mb 74f
4:00 7 10 mph 1007.9mb 74f
3:54 8 10 mph 1007.9mb 74f
3:48 8 11 mph 1007.9mb 74f
3:42 7 9 mph 1007.9mb 74f
3:36 7 10 mph 1007.9mb 74f
3:30 6 8 mph 1008mb 74f
3:24 2 7 mph 1008.1mb 74f
3:18 1 3 mph 1008.2mb 74f
3:12 2 5 mph 1008.1mb 74f
3:06 5 6 mph 1008.2mb 74f
3:00 5 6 mph 1008.3mb 74f
2:54 7 9 mph 1008.3mb 74f
2:48 7 9 mph 1008.4mb 74f
2:42 6 8 mph 1008.4mb 74f
2:36 6 9 mph 1008.4mb 74f
2:30 5 7 mph 1008.5mb 74f
2:24 3 5 mph 1008.4mb 73f
2:18 5 6 mph 1008.4mb 73f
2:12 6 8 mph 1008.4mb 73f
2:06 6 8 mph 1008.5mb 73f
2:00 7 8 mph 1008.4mb 74f
1:54 6 8 mph 1008.3mb 74f
1:48 5 7 mph 1008.3mb 73f
1:42 8 9 mph 1008.3mb 73f
1:36 8 10 mph 1008.9mb 72f
1:30 11 14 mph 1009.2mb 73f
1:24 15 20 mph 1009.5mb 73f
1:18 23 29 mph 1009.8mb 74f
1:12 17 21 mph 1009.8mb 75f
1:06 9 14 mph 1009mb 74f
1:00 10 14 mph 1008.8mb 74f
12:54 9 11 mph 1008.6mb 74f
12:48 8 9 mph 1008.8mb 73f
12:42 9 11 mph 1008.7mb 74f
12:36 8 11 mph 1008.7mb 74f
12:30 6 8 mph 1008.6mb 73f
12:24 8 10 mph 1008.5mb 73f
12:18 8 10 mph 1008.5mb 73f
12:12 9 14 mph 1008.8mb 74f
12:06 10 14 mph 1008.8mb 73f
12:00 8 14 mph - 74f
ven. 07/22 11:54 13 29 mph - 74f
11:48 28 43 mph 1009.7mb 76f
11:42 20 34 mph 1009.6mb 75f
11:36 14 18 mph 1010mb 77f
11:30 14 16 mph 1008.9mb 77f
11:24 14 16 mph 1008.6mb 77f
11:18 14 17 mph 1008.4mb 77f
11:12 21 25 mph 1008.9mb 77f
11:06 18 23 mph 1009mb 77f
11:00  -  mph - 77f
10:54  -  mph - 77f
10:48 11 16 mph - -
10:42 14 16 mph - -
10:36 14 17 mph - -
10:30 13 17 mph - -
10:24 9 14 mph - -
10:18 9 15 mph - 78f
10:06 14 20 mph - 79f
9:54 17 24 mph - 78f
9:48 13 17 mph - -
9:42 13 17 mph - -
9:36 14 17 mph - -
9:30 13 16 mph - -
9:24 16 18 mph - -
9:18 17 20 mph 1009.4mb -
9:12 17 21 mph 1009.1mb -
9:06 17 21 mph 1009.2mb -
9:00  -  mph - 78f
8:54  -  mph - 78f
8:48  -  mph - 78f
8:42 17 22 mph - -
8:36 16 21 mph - -
8:30 14 17 mph - 78f
8:24 14 18 mph - 78f
8:18 14 16 mph - 79f
8:12 15 22 mph - 79f
8:06 15 20 mph - 79f
8:00  -  mph - 79f
7:54  -  mph - 79f
7:48 18 24 mph - -
7:42 15 20 mph - -
7:36 15 20 mph - -
7:30 16 23 mph - -
7:24 17 22 mph - -
7:18 14 20 mph - -
7:12 15 21 mph - -
7:00 18 23 mph - -
6:54 18 24 mph - -
6:48 20 26 mph - -
6:42 22 29 mph - -
6:36 22 29 mph - -
6:30 26 31 mph - 81f
6:24 23 28 mph - 81f
6:18  -  mph - 81f
6:12  -  mph - 82f
6:06  -  mph - 82f
6:00  -  mph - 81f
5:54  -  mph - 82f
5:48 22 26 mph - 82f
5:42 21 29 mph - 82f
5:36 21 28 mph - 82f
5:30 21 26 mph 1008.8mb 82f
5:24 21 30 mph 1008.7mb 82f
5:18 22 28 mph 1008.8mb 82f
5:12 25 31 mph 1008.8mb 82f
5:06 22 28 mph 1008.9mb 82f
5:00 23 29 mph 1008.9mb 82f
4:54 21 25 mph 1008.9mb 82f
4:48 22 30 mph 1008.8mb 82f
4:42 20 25 mph 1008.9mb 83f
4:36 22 30 mph 1008.9mb 83f
4:30 23 29 mph 1009mb 83f
4:24 22 29 mph 1009mb 83f
4:18 22 29 mph 1008.9mb 83f
4:12 21 26 mph 1009mb 83f
4:06 21 26 mph 1009.1mb 83f
4:00 22 28 mph 1009mb 83f
3:54 22 28 mph 1009mb 83f
3:48 22 29 mph 1009mb 83f
3:42 22 26 mph 1009.1mb 83f
3:36 21 25 mph 1009.3mb 83f
3:30 22 28 mph 1009.3mb 83f
3:24 21 26 mph 1009.3mb 83f
3:18 21 25 mph 1009.5mb 83f
3:12 22 28 mph 1009.6mb 82f
3:06 22 26 mph 1009.6mb 82f
3:00 22 29 mph 1009.6mb 82f
2:54 22 29 mph 1009.6mb 82f
2:48 24 29 mph 1009.6mb 82f
2:42 23 29 mph 1009.8mb 82f
2:36 20 25 mph 1009.8mb 82f
2:30 23 26 mph 1009.8mb 82f
2:24 20 24 mph 1009.9mb 82f
2:18 21 24 mph 1009.9mb 82f
2:12 21 24 mph 1010mb 82f
2:06 20 24 mph 1010mb 82f
2:00 20 24 mph 1010.1mb 82f
1:54 22 28 mph 1010.1mb 82f
1:48 21 24 mph 1010.2mb 82f
1:42 18 25 mph 1010.3mb 82f
1:36 21 26 mph 1010.2mb 82f
1:30 22 29 mph 1010.2mb 82f
1:24 22 28 mph 1010.3mb 82f
1:18 22 26 mph 1010.4mb 82f
1:12 22 25 mph 1010.4mb 82f
1:06 18 24 mph 1010.5mb 82f
1:00 22 26 mph 1010.6mb 81f
12:54 21 24 mph 1010.8mb 82f
12:48 21 25 mph 1010.9mb 81f
12:42 18 23 mph 1011mb 81f
12:36 16 20 mph 1011.1mb 81f
12:30 17 24 mph 1011.2mb 80f
12:24 16 22 mph 1011.4mb 80f
12:18 18 22 mph 1011.4mb 80f
12:12 17 22 mph 1011.4mb 80f
12:06 16 20 mph 1011.5mb 80f
12:00 16 21 mph 1011.6mb 80f
11:54 17 22 mph 1011.6mb 80f
11:48 18 23 mph 1011.6mb 80f
11:42 17 23 mph 1011.8mb 80f
11:36 18 21 mph 1011.9mb 79f
11:30 21 24 mph 1012mb 79f
11:24 21 23 mph 1012mb 79f
11:18 22 25 mph 1012mb 79f
11:12 22 24 mph 1012mb 79f
11:06 22 24 mph 1012.1mb 79f
11:00 22 24 mph 1012.2mb 79f
10:54 20 22 mph 1012.3mb 79f
10:48 17 20 mph 1012.3mb 78f
10:42 17 21 mph 1012.3mb 78f
10:36 16 20 mph 1012.4mb 78f
10:30 18 22 mph 1012.4mb 78f